Blairsville, GA

04:37 PM EDT ar Hydref 25, 2014 (GMT -0400)
Old England | Change Station
CLOSE
Current Station
Personal Weather Stations
Location: Blairsville, GA
Elevation: 1883 ft
Nearby Weather Stations

Elev 1883 ft 34.90 °N, 84.03 °W | Updated 7 minutes ago

Clir
Clir
68.3 °F
Feels Like 68.3 °F
N
2.0
Gwynt Cyfnewidiol Gwynt from Gorllewin
Gusts 4.0 mph

Heddiw
High -- | Low -- °F
--% Chance of Precip.
Yesterday
High -- | Low -- °F
Precip. -- mod
7:50 AM 6:49 PM
Waxing Crescent, 4% visible
Gwasgedd 30.01 mod
Gwelededd 10.0 Milltiroedd
Clouds Clir
Gwlithbwynt 45 °F
Lleithder 43%
Rainfall 0.00 mod
Snow Depth Not available.
UV 2 out of 12
Pollen .80 out of 12
Air Quality Not available.
Flu Activity Sporadic
METAR KRHP 252015Z AUTO 00000KT 10SM CLR 23/06 A3001 RMK AO2 T02260061

More Conditions Fewer Conditions

Gwasgedd 30.01 mod
Gwelededd 10.0 Milltiroedd
Clouds Clir
Gwlithbwynt 45 °F
Lleithder 43%
Rainfall 0.00 mod
Snow Depth Not available.
UV 2 out of 12
Pollen .80 out of 12
Air Quality Not available.
Flu Activity Sporadic
METAR KRHP 252015Z AUTO 00000KT 10SM CLR 23/06 A3001 RMK AO2 T02260061

More Conditions Fewer Conditions

10-Day Weather Forecast

Almanac

Astronomy

Oct. 25, 2014 Rise Set
Actual Time 7:50 AM EDT 6:49 PM EDT
Civil Twilight 7:24 AM EDT 7:15 PM EDT
Nautical Twilight 6:55 AM EDT 7:44 PM EDT
Astronomical Twilight 6:25 AM EDT 8:13 PM EDT
Moon 9:25 AM EDT 8:14 PM EDT
Length Of Visible Light 11h 50m
Length of Day
10h 58m
Tomorrow will be 1m 59s shorter.
Waxing Crescent, 4% of the Moon is Illuminated
Heddiw
Waxing Crescent
Oct 30
First Quarter
Nov 6
Full
Nov 14
Last Quarter
Nov 22
New

Today's Extremes

State Highs State Lows

Community

WunderPhotos

Upload Photos

1,764,985 photos uploaded!

Nearby

Snow Depth

Station Depth Elevation
No new snow has been reported.

Earthquake Activity

City Distance Mag. Time & Date
No recent earthquake activity has been reported nearby.
Minimum magnitude displayed is 2.5.

Coastal Water Temperatures

Lle Tymheredd
No Stations Reporting

Nearby Weather Stations